createdAt,value
2022-08-29T00:00:25.292Z,99179.94
2022-08-29T00:01:30.384Z,99178.25
2022-08-29T00:02:33.962Z,99181.59
2022-08-29T00:03:40.676Z,99179.28
2022-08-29T00:04:44.638Z,99179.09
2022-08-29T00:05:49.995Z,99166.97
2022-08-29T00:06:54.463Z,99179.63
2022-08-29T00:08:00.976Z,99171.06
2022-08-29T00:09:05.045Z,99180.69
2022-08-29T00:10:09.703Z,99186.44
2022-08-29T00:11:14.661Z,99183.53
2022-08-29T00:12:18.288Z,99166.75
2022-08-29T00:13:22.637Z,99189.31
2022-08-29T00:14:26.673Z,99192.69
2022-08-29T00:15:30.914Z,99187.91
2022-08-29T00:16:35.905Z,99191.31
2022-08-29T00:17:39.789Z,99182.88
2022-08-29T00:18:43.594Z,99191.47
2022-08-29T00:19:47.027Z,99193.63
2022-08-29T00:20:51.123Z,99188.03
2022-08-29T00:21:54.730Z,99174.97
2022-08-29T00:22:59.034Z,99192.44
2022-08-29T00:24:02.867Z,99172.91
2022-08-29T00:25:08.608Z,99192.63
2022-08-29T00:26:12.952Z,99189.72
2022-08-29T00:27:16.980Z,99188.88
2022-08-29T00:28:21.479Z,99193.28
2022-08-29T00:29:24.915Z,99191.94
2022-08-29T00:30:28.559Z,99189.25
2022-08-29T00:31:32.296Z,99186.88
2022-08-29T00:32:36.456Z,99188.03
2022-08-29T00:33:40.219Z,99172.72
2022-08-29T00:34:43.651Z,99195.63
2022-08-29T00:35:47.703Z,99186.19
2022-08-29T00:36:51.824Z,99187.84
2022-08-29T00:37:56.391Z,99164.78
2022-08-29T00:38:59.950Z,99186.97
2022-08-29T00:40:07.821Z,99193.06
2022-08-29T00:41:11.545Z,99192.88
2022-08-29T00:42:15.029Z,99188.66
2022-08-29T00:43:23.177Z,99190.34
2022-08-29T00:44:26.823Z,99176.88
2022-08-29T00:45:31.252Z,99167.47
2022-08-29T00:46:40.899Z,99186.78
2022-08-29T00:47:55.218Z,99175.03
2022-08-29T00:49:08.714Z,99160.75
2022-08-29T00:50:31.679Z,99174.84
2022-08-29T00:51:36.638Z,99173.53
2022-08-29T00:52:46.890Z,99179.69
2022-08-29T00:54:01.596Z,99182.41
2022-08-29T00:55:12.289Z,99168.13
2022-08-29T00:56:19.005Z,99162.31
2022-08-29T00:57:25.109Z,99182.31
2022-08-29T00:58:53.644Z,99176.88
2022-08-29T00:59:58.232Z,99168.31
2022-08-29T01:01:02.271Z,99180.81
2022-08-29T01:02:07.805Z,99181.09
2022-08-29T01:03:11.339Z,99188.84
2022-08-29T01:04:23.853Z,99176.06
2022-08-29T01:05:28.129Z,99167.84
2022-08-29T01:06:32.793Z,99184.06
2022-08-29T01:07:37.982Z,99188.50
2022-08-29T01:08:45.839Z,99179.25
2022-08-29T01:09:49.817Z,99177.56
2022-08-29T01:11:11.888Z,99183.25
2022-08-29T01:12:16.692Z,99169.44
2022-08-29T01:13:29.813Z,99188.31
2022-08-29T01:14:38.251Z,99187.66
2022-08-29T01:15:44.408Z,99189.50
2022-08-29T01:16:51.170Z,99190.34
2022-08-29T01:17:56.048Z,99191.34
2022-08-29T01:19:28.164Z,99190.16
2022-08-29T01:20:54.752Z,99186.78
2022-08-29T01:22:23.644Z,99193.13
2022-08-29T01:24:01.359Z,99185.78
2022-08-29T01:25:16.345Z,99189.97
2022-08-29T01:26:22.519Z,99191.84
2022-08-29T01:27:31.467Z,99178.22
2022-08-29T01:28:43.757Z,99195.38
2022-08-29T01:29:48.061Z,99180.38
2022-08-29T01:31:55.638Z,99180.19
2022-08-29T01:32:52.814Z,99175.97
2022-08-29T01:33:59.507Z,99189.31
2022-08-29T01:35:03.563Z,99171.88
2022-08-29T01:36:10.783Z,99186.63
2022-08-29T01:37:16.854Z,99188.00
2022-08-29T01:38:27.827Z,99189.31
2022-08-29T01:39:36.405Z,99190.81
2022-08-29T01:40:40.149Z,99185.41
2022-08-29T01:41:44.769Z,99188.00
2022-08-29T01:42:48.355Z,99195.09
2022-08-29T01:43:55.608Z,99185.28
2022-08-29T01:45:00.964Z,99194.25
2022-08-29T01:46:06.818Z,99189.03
2022-08-29T01:47:11.846Z,99193.22
2022-08-29T01:48:15.749Z,99189.69
2022-08-29T01:49:22.197Z,99178.94
2022-08-29T01:50:25.886Z,99173.53
2022-08-29T01:51:29.891Z,99193.59
2022-08-29T01:52:33.546Z,99179.59
2022-08-29T01:53:38.612Z,99199.13
2022-08-29T01:54:45.494Z,99196.97
2022-08-29T01:55:49.065Z,99183.13
2022-08-29T01:56:54.238Z,99199.97
2022-08-29T01:57:57.780Z,99199.78
2022-08-29T01:59:06.151Z,99198.47
2022-08-29T02:00:12.085Z,99182.97
2022-08-29T02:01:22.633Z,99200.81
2022-08-29T02:02:30.015Z,99194.06
2022-08-29T02:03:33.768Z,99205.00
2022-08-29T02:04:38.325Z,99208.91
2022-08-29T02:05:41.869Z,99210.97
2022-08-29T02:06:45.858Z,99203.41
2022-08-29T02:07:50.304Z,99187.72
2022-08-29T02:08:55.088Z,99210.97
2022-08-29T02:09:59.568Z,99206.41
2022-08-29T02:11:04.137Z,99189.88
2022-08-29T02:12:08.169Z,99196.13
2022-08-29T02:13:11.932Z,99203.31
2022-08-29T02:14:19.692Z,99201.81
2022-08-29T02:15:23.914Z,99199.13
2022-08-29T02:16:30.132Z,99194.56
2022-08-29T02:17:34.164Z,99178.59
2022-08-29T02:18:38.070Z,99200.59
2022-08-29T02:19:42.464Z,99205.00
2022-08-29T02:20:46.414Z,99202.97
2022-08-29T02:21:50.103Z,99182.97
2022-08-29T02:22:53.762Z,99203.50
2022-08-29T02:24:16.026Z,99201.63
2022-08-29T02:25:44.173Z,99198.75
2022-08-29T02:26:47.747Z,99207.03
2022-08-29T02:27:52.507Z,99208.28
2022-08-29T02:28:56.376Z,99201.19
2022-08-29T02:29:59.992Z,99184.66
2022-08-29T02:31:06.193Z,99199.47
2022-08-29T02:32:15.279Z,99191.44
2022-08-29T02:33:20.342Z,99200.31
2022-08-29T02:34:24.186Z,99191.44
2022-08-29T02:35:27.789Z,99196.50
2022-08-29T02:36:33.724Z,99201.34
2022-08-29T02:37:37.276Z,99204.53
2022-08-29T02:38:41.251Z,99204.72
2022-08-29T02:39:44.860Z,99190.06
2022-08-29T02:40:50.461Z,99202.03
2022-08-29T02:41:54.234Z,99205.72
2022-08-29T02:42:58.133Z,99206.50
2022-08-29T02:44:01.924Z,99210.28
2022-08-29T02:45:06.407Z,99204.63
2022-08-29T02:46:16.615Z,99195.66
2022-08-29T02:47:20.247Z,99204.88
2022-08-29T02:48:24.553Z,99203.22
2022-08-29T02:49:28.255Z,99208.44
2022-08-29T02:50:31.785Z,99209.28
2022-08-29T02:51:35.514Z,99218.06
2022-08-29T02:52:41.985Z,99211.63
2022-08-29T02:53:45.529Z,99210.69
2022-08-29T02:54:49.520Z,99201.81
2022-08-29T02:55:54.165Z,99213.56
2022-08-29T02:56:57.621Z,99198.06
2022-08-29T02:58:01.418Z,99210.69
2022-08-29T02:59:06.542Z,99215.25
2022-08-29T03:00:16.540Z,99216.47
2022-08-29T03:01:23.333Z,99219.19
2022-08-29T03:02:27.825Z,99221.00
2022-08-29T03:03:33.407Z,99214.41
2022-08-29T03:04:37.043Z,99218.16
2022-08-29T03:05:42.027Z,99220.28
2022-08-29T03:06:46.903Z,99220.28
2022-08-29T03:07:52.272Z,99216.09
2022-08-29T03:08:56.177Z,99217.75
2022-08-29T03:09:59.814Z,99211.50
2022-08-29T03:11:03.760Z,99218.03
2022-08-29T03:12:07.464Z,99208.97
2022-08-29T03:13:11.723Z,99216.81
2022-08-29T03:14:15.925Z,99222.41
2022-08-29T03:15:20.898Z,99210.47
2022-08-29T03:16:24.745Z,99210.91
2022-08-29T03:17:28.476Z,99212.53
2022-08-29T03:18:32.687Z,99206.81
2022-08-29T03:19:37.472Z,99219.13
2022-08-29T03:20:42.497Z,99224.81
2022-08-29T03:21:46.022Z,99229.22
2022-08-29T03:22:50.085Z,99222.97
2022-08-29T03:23:56.517Z,99222.75
2022-08-29T03:25:04.490Z,99221.47
2022-08-29T03:26:08.689Z,99208.88
2022-08-29T03:27:12.249Z,99223.22
2022-08-29T03:28:15.982Z,99229.09
2022-08-29T03:29:19.664Z,99214.91
2022-08-29T03:30:23.978Z,99229.09
2022-08-29T03:31:27.652Z,99227.41
2022-08-29T03:32:31.304Z,99231.78
2022-08-29T03:33:34.793Z,99237.06
2022-08-29T03:34:39.303Z,99229.09
2022-08-29T03:35:43.369Z,99232.81
2022-08-29T03:36:46.897Z,99241.97
2022-08-29T03:37:54.378Z,99226.66
2022-08-29T03:38:57.971Z,99237.59
2022-08-29T03:40:02.434Z,99234.41
2022-08-29T03:41:07.801Z,99243.38
2022-08-29T03:42:12.063Z,99241.13
2022-08-29T03:43:15.559Z,99244.03
2022-08-29T03:44:19.939Z,99235.03
2022-08-29T03:45:25.651Z,99245.59
2022-08-29T03:46:29.460Z,99240.56
2022-08-29T03:47:33.097Z,99241.28
2022-08-29T03:48:36.726Z,99249.00
2022-08-29T03:49:40.849Z,99253.75
2022-08-29T03:50:44.476Z,99248.53
2022-08-29T03:51:50.146Z,99251.25
2022-08-29T03:52:53.806Z,99245.53
2022-08-29T03:53:58.496Z,99234.78
2022-08-29T03:55:02.118Z,99253.94
2022-08-29T03:56:06.279Z,99248.53
2022-08-29T03:57:10.507Z,99240.31
2022-08-29T03:58:14.112Z,99249.44
2022-08-29T03:59:19.485Z,99252.16
2022-08-29T04:00:23.581Z,99259.56
2022-08-29T04:01:29.738Z,99259.75
2022-08-29T04:02:33.371Z,99251.66
2022-08-29T04:03:36.982Z,99261.09
2022-08-29T04:04:59.084Z,99254.72
2022-08-29T04:06:02.929Z,99268.66
2022-08-29T04:07:07.060Z,99261.75
2022-08-29T04:08:10.723Z,99254.84
2022-08-29T04:09:14.304Z,99266.50
2022-08-29T04:10:34.716Z,99263.31
2022-08-29T04:11:38.584Z,99269.88
2022-08-29T04:12:42.224Z,99266.84
2022-08-29T04:13:47.922Z,99268.25
2022-08-29T04:14:51.419Z,99266.25
2022-08-29T04:15:54.948Z,99274.69
2022-08-29T04:16:58.647Z,99272.31
2022-08-29T04:18:15.653Z,99280.56
2022-08-29T04:19:25.097Z,99280.38
2022-08-29T04:20:33.175Z,99282.22
2022-08-29T04:21:36.785Z,99283.06
2022-08-29T04:22:43.031Z,99275.97
2022-08-29T04:23:47.972Z,99268.44
2022-08-29T04:24:54.652Z,99271.28
2022-08-29T04:26:18.810Z,99281.09
2022-08-29T04:27:21.814Z,99263.06
2022-08-29T04:28:25.563Z,99286.34
2022-08-29T04:29:29.335Z,99282.09
2022-08-29T04:30:33.803Z,99281.94
2022-08-29T04:31:39.501Z,99279.59
2022-08-29T04:32:43.412Z,99296.13
2022-08-29T04:33:50.249Z,99289.03
2022-08-29T04:34:58.196Z,99296.00
2022-08-29T04:36:06.411Z,99300.03
2022-08-29T04:37:10.147Z,99287.16
2022-08-29T04:38:13.765Z,99303.84
2022-08-29T04:39:18.105Z,99300.69
2022-08-29T04:40:23.355Z,99302.19
2022-08-29T04:41:27.103Z,99305.72
2022-08-29T04:42:31.327Z,99298.81
2022-08-29T04:43:35.008Z,99300.31
2022-08-29T04:44:38.770Z,99286.19
2022-08-29T04:45:42.445Z,99299.16
2022-08-29T04:46:45.980Z,99302.84
2022-08-29T04:47:49.999Z,99304.69
2022-08-29T04:48:54.488Z,99301.53
2022-08-29T04:49:58.136Z,99298.81
2022-08-29T04:51:02.370Z,99297.63
2022-08-29T04:52:06.429Z,99296.31
2022-08-29T04:53:09.934Z,99301.88
2022-08-29T04:54:13.379Z,99298.31
2022-08-29T04:55:21.661Z,99300.38
2022-08-29T04:56:26.248Z,99307.78
2022-08-29T04:57:29.799Z,99306.75
2022-08-29T04:58:39.907Z,99312.16
2022-08-29T04:59:43.838Z,99309.13
2022-08-29T05:00:48.025Z,99316.91
2022-08-29T05:01:51.734Z,99324.19
2022-08-29T05:02:55.967Z,99325.66
2022-08-29T05:03:59.855Z,99310.34
2022-08-29T05:05:03.951Z,99322.78
2022-08-29T05:06:12.380Z,99325.00
2022-08-29T05:07:16.769Z,99315.94
2022-08-29T05:08:21.157Z,99321.16
2022-08-29T05:09:24.807Z,99328.06
2022-08-29T05:10:29.238Z,99319.13
2022-08-29T05:11:34.506Z,99330.94
2022-08-29T05:12:38.200Z,99340.91
2022-08-29T05:13:42.518Z,99336.00
2022-08-29T05:14:47.014Z,99339.06
2022-08-29T05:15:50.985Z,99341.41
2022-08-29T05:16:54.472Z,99339.88
2022-08-29T05:17:58.070Z,99340.06
2022-08-29T05:19:01.624Z,99336.16
2022-08-29T05:20:08.644Z,99345.97
2022-08-29T05:21:14.276Z,99330.13
2022-08-29T05:22:21.145Z,99345.28
2022-08-29T05:23:24.848Z,99342.41
2022-08-29T05:24:28.507Z,99342.31
2022-08-29T05:25:33.401Z,99343.81
2022-08-29T05:26:43.127Z,99345.84
2022-08-29T05:27:48.049Z,99337.56
2022-08-29T05:28:55.111Z,99346.84
2022-08-29T05:30:00.242Z,99348.84
2022-08-29T05:31:05.618Z,99355.09
2022-08-29T05:32:12.797Z,99346.00
2022-08-29T05:33:18.182Z,99348.84
2022-08-29T05:34:34.315Z,99348.00
2022-08-29T05:35:40.554Z,99360.03
2022-08-29T05:36:48.135Z,99359.19
2022-08-29T05:37:53.083Z,99354.25
2022-08-29T05:38:58.758Z,99357.50
2022-08-29T05:40:06.009Z,99366.44
2022-08-29T05:41:12.107Z,99355.63
2022-08-29T05:42:22.885Z,99319.22
2022-08-29T05:43:30.892Z,99360.34
2022-08-29T05:44:42.425Z,99361.03
2022-08-29T05:45:47.406Z,99359.84
2022-08-29T05:46:53.960Z,99365.25
2022-08-29T05:48:02.741Z,99359.19
2022-08-29T05:49:07.498Z,99360.69
2022-08-29T05:50:17.697Z,99357.50
2022-08-29T05:51:26.151Z,99360.88
2022-08-29T05:52:32.619Z,99366.28
2022-08-29T05:53:39.957Z,99355.28
2022-08-29T05:54:46.131Z,99355.47
2022-08-29T05:55:52.291Z,99355.09
2022-08-29T05:56:58.545Z,99362.19
2022-08-29T05:58:03.721Z,99366.59
2022-08-29T05:59:10.326Z,99367.44
2022-08-29T06:00:18.404Z,99372.84
2022-08-29T06:01:33.082Z,99362.84
2022-08-29T06:02:37.618Z,99364.91
2022-08-29T06:03:45.916Z,99368.59
2022-08-29T06:04:52.354Z,99369.28
2022-08-29T06:05:57.078Z,99368.59
2022-08-29T06:07:02.001Z,99370.97
2022-08-29T06:08:07.544Z,99373.00
2022-08-29T06:09:14.285Z,99377.41
2022-08-29T06:10:18.504Z,99367.94
2022-08-29T06:11:32.239Z,99368.59
2022-08-29T06:12:38.432Z,99371.50
2022-08-29T06:13:43.662Z,99377.06
2022-08-29T06:14:50.687Z,99373.53
2022-08-29T06:15:56.354Z,99376.41
2022-08-29T06:17:02.696Z,99376.25
2022-08-29T06:18:08.251Z,99383.31
2022-08-29T06:19:13.647Z,99379.28
2022-08-29T06:20:19.397Z,99388.38
2022-08-29T06:21:25.192Z,99374.44
2022-08-29T06:22:31.047Z,99384.53
2022-08-29T06:23:41.074Z,99386.72
2022-08-29T06:24:48.670Z,99387.25
2022-08-29T06:25:59.680Z,99393.63
2022-08-29T06:27:15.860Z,99393.63
2022-08-29T06:28:24.065Z,99389.25
2022-08-29T06:29:30.496Z,99390.63
2022-08-29T06:30:37.343Z,99397.53
2022-08-29T06:31:43.527Z,99395.50
2022-08-29T06:32:49.143Z,99397.03
2022-08-29T06:33:57.547Z,99395.88
2022-08-29T06:35:02.191Z,99397.72
2022-08-29T06:36:09.746Z,99405.28
2022-08-29T06:37:14.739Z,99412.41
2022-08-29T06:38:20.391Z,99402.44
2022-08-29T06:39:25.244Z,99405.97
2022-08-29T06:40:32.757Z,99405.78
2022-08-29T06:41:44.508Z,99403.28
2022-08-29T06:42:48.800Z,99414.75
2022-08-29T06:43:55.960Z,99405.13
2022-08-29T06:45:00.221Z,99403.59
2022-08-29T06:46:06.237Z,99411.72
2022-08-29T06:47:11.143Z,99414.09
2022-08-29T06:48:16.719Z,99412.88
2022-08-29T06:49:22.238Z,99421.50
2022-08-29T06:50:29.171Z,99422.81
2022-08-29T06:51:39.351Z,99409.47
2022-08-29T06:52:47.165Z,99413.34
2022-08-29T06:53:54.176Z,99411.66
2022-08-29T06:54:58.611Z,99410.81
2022-08-29T06:56:11.352Z,99424.28
2022-08-29T06:57:18.084Z,99427.66
2022-08-29T06:58:23.834Z,99419.50
2022-08-29T06:59:30.698Z,99426.91
2022-08-29T07:00:35.632Z,99425.81
2022-08-29T07:01:46.090Z,99426.81
2022-08-29T07:02:54.201Z,99431.44
2022-08-29T07:04:00.489Z,99431.09
2022-08-29T07:05:08.393Z,99431.53
2022-08-29T07:06:15.112Z,99438.75
2022-08-29T07:07:19.539Z,99427.19
2022-08-29T07:08:24.211Z,99435.69
2022-08-29T07:09:31.299Z,99427.78
2022-08-29T07:10:36.517Z,99435.91
2022-08-29T07:11:43.204Z,99435.41
2022-08-29T07:12:48.230Z,99412.47
2022-08-29T07:13:53.171Z,99432.31
2022-08-29T07:14:57.338Z,99413.44
2022-08-29T07:16:03.448Z,99443.56
2022-08-29T07:17:07.979Z,99433.88
2022-08-29T07:18:12.427Z,99441.28
2022-08-29T07:19:17.649Z,99440.72
2022-08-29T07:20:22.336Z,99438.50
2022-08-29T07:21:31.561Z,99442.34
2022-08-29T07:22:36.484Z,99437.47
2022-08-29T07:23:42.660Z,99444.75
2022-08-29T07:24:50.302Z,99443.91
2022-08-29T07:25:55.064Z,99446.13
2022-08-29T07:26:59.862Z,99445.28
2022-08-29T07:28:05.534Z,99443.69
2022-08-29T07:29:20.916Z,99453.13
2022-08-29T07:30:26.919Z,99449.41
2022-08-29T07:31:32.993Z,99453.13
2022-08-29T07:32:38.450Z,99443.31
2022-08-29T07:33:42.901Z,99446.50
2022-08-29T07:34:54.109Z,99448.19
2022-08-29T07:36:03.756Z,99451.38
2022-08-29T07:37:11.626Z,99447.91
2022-08-29T07:38:17.013Z,99455.50
2022-08-29T07:39:23.386Z,99448.22
2022-08-29T07:40:28.915Z,99452.03
2022-08-29T07:41:39.843Z,99457.72
2022-08-29T07:42:46.152Z,99454.63
2022-08-29T07:43:51.614Z,99451.16
2022-08-29T07:44:56.853Z,99448.53
2022-08-29T07:46:15.502Z,99431.66
2022-08-29T07:47:21.549Z,99454.03
2022-08-29T07:48:28.049Z,99449.19
2022-08-29T07:49:41.125Z,99451.56
2022-08-29T07:50:46.199Z,99442.00
2022-08-29T07:51:56.445Z,99441.41
2022-08-29T07:53:03.856Z,99439.31
2022-08-29T07:54:09.815Z,99445.22
2022-08-29T07:55:18.980Z,99447.53
2022-08-29T07:56:40.494Z,99411.50
2022-08-29T07:57:48.911Z,99449.38
2022-08-29T07:58:55.014Z,99444.97
2022-08-29T08:00:01.251Z,99436.44
2022-08-29T08:01:07.303Z,99453.19
2022-08-29T08:02:15.889Z,99451.09
2022-08-29T08:03:23.994Z,99457.09
2022-08-29T08:04:30.316Z,99463.00
2022-08-29T08:05:35.320Z,99448.13
2022-08-29T08:06:43.025Z,99462.22
2022-08-29T08:07:55.313Z,99469.72
2022-08-29T08:09:04.157Z,99473.16
2022-08-29T08:10:10.963Z,99474.53
2022-08-29T08:11:16.894Z,99471.03
2022-08-29T08:12:23.229Z,99478.47
2022-08-29T08:13:29.047Z,99480.06
2022-08-29T08:14:35.293Z,99461.53
2022-08-29T08:15:41.593Z,99473.19
2022-08-29T08:16:46.323Z,99481.38
2022-08-29T08:17:50.900Z,99475.94
2022-08-29T08:18:57.337Z,99474.31
2022-08-29T08:20:07.257Z,99480.47
2022-08-29T08:21:13.529Z,99478.13
2022-08-29T08:22:18.363Z,99479.47
2022-08-29T08:23:23.228Z,99468.28
2022-08-29T08:24:28.380Z,99471.31
2022-08-29T08:25:32.512Z,99473.09
2022-08-29T08:26:37.540Z,99481.09
2022-08-29T08:27:43.584Z,99482.19
2022-08-29T08:28:49.244Z,99489.22
2022-08-29T08:29:59.928Z,99485.38
2022-08-29T08:31:09.253Z,99484.72
2022-08-29T08:32:14.944Z,99478.69
2022-08-29T08:33:19.679Z,99498.41
2022-08-29T08:34:24.872Z,99493.78
2022-08-29T08:35:30.624Z,99494.38
2022-08-29T08:36:41.328Z,99491.75
2022-08-29T08:37:48.510Z,99499.84
2022-08-29T08:38:55.740Z,99482.53
2022-08-29T08:40:03.186Z,99496.69
2022-08-29T08:41:36.668Z,99489.94
2022-08-29T08:42:45.877Z,99483.09
2022-08-29T08:43:55.258Z,99478.75
2022-08-29T08:45:27.441Z,99489.44
2022-08-29T08:46:41.443Z,99488.22
2022-08-29T08:48:08.711Z,99489.09
2022-08-29T08:49:44.596Z,99489.22
2022-08-29T08:51:26.299Z,99488.00
2022-08-29T08:53:22.968Z,99497.28
2022-08-29T08:54:41.615Z,99496.97
2022-08-29T08:55:51.352Z,99490.06
2022-08-29T08:57:08.300Z,99497.47
2022-08-29T08:58:32.572Z,99501.19
2022-08-29T08:59:45.794Z,99507.09
2022-08-29T09:01:34.350Z,99500.84
2022-08-29T09:03:01.176Z,99499.66
2022-08-29T09:04:46.201Z,99503.47
2022-08-29T09:06:25.101Z,99496.59
2022-08-29T09:08:15.816Z,99496.38
2022-08-29T09:09:54.550Z,99496.56
2022-08-29T09:11:48.334Z,99495.53
2022-08-29T09:13:37.283Z,99492.44
2022-08-29T09:15:14.325Z,99493.97
2022-08-29T09:16:43.108Z,99494.97
2022-08-29T09:18:07.085Z,99492.09
2022-08-29T09:19:17.385Z,99499.09
2022-08-29T09:20:32.380Z,99497.97
2022-08-29T09:22:06.705Z,99493.94
2022-08-29T09:23:44.387Z,99499.91
2022-08-29T09:25:07.454Z,99499.47
2022-08-29T09:26:24.751Z,99501.25
2022-08-29T09:27:35.342Z,99498.63
2022-08-29T09:28:41.683Z,99504.09
2022-08-29T09:29:48.549Z,99498.03
2022-08-29T09:31:23.613Z,99505.19
2022-08-29T09:32:32.307Z,99506.22
2022-08-29T09:33:51.355Z,99496.78
2022-08-29T09:35:15.444Z,99499.66
2022-08-29T09:36:51.986Z,99497.06
2022-08-29T09:38:08.702Z,99499.56
2022-08-29T09:39:28.957Z,99505.00
2022-08-29T09:40:59.373Z,99499.31
2022-08-29T09:42:14.432Z,99484.59
2022-08-29T09:43:46.841Z,99503.19
2022-08-29T09:45:26.523Z,99488.94
2022-08-29T09:46:32.362Z,99490.84
2022-08-29T09:47:37.700Z,99492.72
2022-08-29T09:48:53.778Z,99495.66
2022-08-29T09:50:26.892Z,99501.59
2022-08-29T09:51:45.737Z,99496.53
2022-08-29T09:53:01.317Z,99497.00
2022-08-29T09:54:29.969Z,99495.19
2022-08-29T09:55:45.149Z,99492.06
2022-08-29T09:57:30.116Z,99492.06
2022-08-29T09:58:42.496Z,99495.03
2022-08-29T10:00:07.860Z,99486.03
2022-08-29T10:01:25.610Z,99495.06
2022-08-29T10:02:49.822Z,99486.84
2022-08-29T10:04:03.683Z,99482.47
2022-08-29T10:05:13.247Z,99484.38
2022-08-29T10:06:32.673Z,99481.81
2022-08-29T10:07:51.247Z,99484.56
2022-08-29T10:09:34.048Z,99475.09
2022-08-29T10:10:52.777Z,99477.00
2022-08-29T10:12:13.760Z,99482.00
2022-08-29T10:13:31.841Z,99483.88
2022-08-29T10:14:57.070Z,99480.09
2022-08-29T10:16:27.981Z,99480.34
2022-08-29T10:18:28.096Z,99453.28
2022-08-29T10:19:34.163Z,99481.38
2022-08-29T10:20:55.711Z,99470.84
2022-08-29T10:22:42.807Z,99477.59
2022-08-29T10:24:36.915Z,99477.63
2022-08-29T10:25:46.072Z,99477.25
2022-08-29T10:27:32.429Z,99473.47
2022-08-29T10:28:56.011Z,99474.13
2022-08-29T10:30:06.052Z,99478.31
2022-08-29T10:32:01.882Z,99483.75
2022-08-29T10:33:55.684Z,99482.28
2022-08-29T10:35:18.410Z,99466.97
2022-08-29T10:36:47.336Z,99470.56
2022-08-29T10:38:19.097Z,99481.88
2022-08-29T10:39:35.598Z,99474.50
2022-08-29T10:40:55.402Z,99481.00
2022-08-29T10:42:12.165Z,99480.81
2022-08-29T10:43:40.826Z,99475.78
2022-08-29T10:45:22.846Z,99463.53
2022-08-29T10:46:57.182Z,99474.88
2022-08-29T10:48:36.238Z,99475.69
2022-08-29T10:49:58.608Z,99465.25
2022-08-29T10:51:44.013Z,99473.22
2022-08-29T10:53:00.244Z,99472.78
2022-08-29T10:54:29.599Z,99472.41
2022-08-29T10:55:56.593Z,99476.63
2022-08-29T10:57:04.992Z,99456.66
2022-08-29T10:58:26.591Z,99466.72
2022-08-29T11:00:10.765Z,99472.63
2022-08-29T11:02:14.101Z,99474.31
2022-08-29T11:03:42.132Z,99458.97
2022-08-29T11:04:54.928Z,99475.34
2022-08-29T11:06:09.948Z,99469.47
2022-08-29T11:07:47.233Z,99477.25
2022-08-29T11:09:10.415Z,99485.84
2022-08-29T11:10:40.701Z,99484.88
2022-08-29T11:12:17.470Z,99489.53
2022-08-29T11:13:47.775Z,99486.78
2022-08-29T11:15:20.767Z,99472.50
2022-08-29T11:16:52.921Z,99481.03
2022-08-29T11:18:32.576Z,99476.88
2022-08-29T11:20:02.885Z,99477.31
2022-08-29T11:22:02.928Z,99469.31
2022-08-29T11:23:35.862Z,99470.56
2022-08-29T11:24:46.985Z,99468.69
2022-08-29T11:25:52.205Z,99469.31
2022-08-29T11:27:15.850Z,99464.28
2022-08-29T11:29:17.586Z,99469.31
2022-08-29T11:30:39.326Z,99480.03
2022-08-29T11:32:03.791Z,99465.63
2022-08-29T11:33:27.156Z,99460.16
2022-08-29T11:35:21.527Z,99470.25
2022-08-29T11:36:50.002Z,99460.63
2022-08-29T11:37:54.343Z,99468.97
2022-08-29T11:39:22.193Z,99461.25
2022-08-29T11:43:55.656Z,99449.06
2022-08-29T11:45:07.246Z,99470.47
2022-08-29T11:46:14.580Z,99431.03
2022-08-29T11:47:45.672Z,99449.09
2022-08-29T11:48:56.828Z,99466.50
2022-08-29T11:50:15.718Z,99429.19
2022-08-29T11:51:40.873Z,99453.50
2022-08-29T11:53:34.219Z,99457.88
2022-08-29T11:54:40.750Z,99459.75
2022-08-29T11:56:17.690Z,99460.81
2022-08-29T11:57:21.773Z,99456.19
2022-08-29T11:58:25.984Z,99460.31
2022-08-29T11:59:55.277Z,99456.34
2022-08-29T12:01:00.459Z,99456.75
2022-08-29T12:02:04.872Z,99436.38
2022-08-29T12:03:34.497Z,99437.84
2022-08-29T12:05:17.116Z,99454.22
2022-08-29T12:06:31.799Z,99466.16
2022-08-29T12:07:50.342Z,99460.00
2022-08-29T12:09:13.890Z,99452.09
2022-08-29T12:10:24.469Z,99454.00
2022-08-29T12:11:59.454Z,99461.34
2022-08-29T12:13:06.842Z,99463.47
2022-08-29T12:14:44.401Z,99461.97
2022-08-29T12:15:54.120Z,99459.06
2022-08-29T12:17:05.755Z,99461.34
2022-08-29T12:18:15.954Z,99457.41
2022-08-29T12:19:52.142Z,99462.00
2022-08-29T12:20:56.996Z,99460.97
2022-08-29T12:22:02.239Z,99459.13
2022-08-29T12:23:08.120Z,99464.38
2022-08-29T12:24:44.847Z,99460.16
2022-08-29T12:26:43.474Z,99464.38
2022-08-29T12:28:21.313Z,99458.72
2022-08-29T12:29:41.995Z,99456.41
2022-08-29T12:31:10.401Z,99463.53
2022-08-29T12:33:06.760Z,99467.31
2022-08-29T12:34:36.413Z,99470.22
2022-08-29T12:36:09.849Z,99470.03
2022-08-29T12:37:35.291Z,99461.63
2022-08-29T12:39:30.968Z,99466.66
2022-08-29T12:41:05.386Z,99463.09
2022-08-29T12:42:39.596Z,99456.56
2022-08-29T12:43:51.402Z,99472.09
2022-08-29T12:45:12.035Z,99459.25
2022-08-29T12:46:33.771Z,99456.34
2022-08-29T12:47:55.410Z,99459.72
2022-08-29T12:49:51.936Z,99465.16
2022-08-29T12:50:57.473Z,99452.97
2022-08-29T12:52:08.531Z,99450.47
2022-08-29T12:53:26.600Z,99455.06
2022-08-29T12:54:42.389Z,99451.50
2022-08-29T12:56:02.176Z,99449.63
2022-08-29T12:57:22.612Z,99456.34
2022-08-29T12:58:53.421Z,99455.53
2022-08-29T13:00:02.577Z,99440.44
2022-08-29T13:01:40.421Z,99458.03
2022-08-29T13:03:15.548Z,99445.88
2022-08-29T13:04:32.053Z,99446.72
2022-08-29T13:05:40.748Z,99452.38
2022-08-29T13:07:06.581Z,99448.41
2022-08-29T13:08:33.425Z,99457.59
2022-08-29T13:09:47.476Z,99449.03
2022-08-29T13:11:03.968Z,99459.28
2022-08-29T13:12:16.782Z,99447.38
2022-08-29T13:13:25.809Z,99452.41
2022-08-29T13:14:30.605Z,99449.50
2022-08-29T13:15:35.521Z,99456.41
2022-08-29T13:16:41.169Z,99451.78
2022-08-29T13:17:50.493Z,99457.69
2022-08-29T13:19:09.946Z,99443.00
2022-08-29T13:20:42.359Z,99455.16
2022-08-29T13:21:48.073Z,99452.22
2022-08-29T13:23:14.591Z,99449.06
2022-08-29T13:24:24.918Z,99453.50
2022-08-29T13:25:29.740Z,99446.97
2022-08-29T13:27:04.836Z,99444.03
2022-08-29T13:28:22.698Z,99440.69
2022-08-29T13:29:36.352Z,99446.13
2022-08-29T13:30:41.968Z,99446.31
2022-08-29T13:32:24.380Z,99440.44
2022-08-29T13:33:35.077Z,99446.72
2022-08-29T13:34:59.345Z,99437.09
2022-08-29T13:36:29.532Z,99438.56
2022-08-29T13:37:38.972Z,99437.50
2022-08-29T13:38:43.653Z,99435.22
2022-08-29T13:39:48.776Z,99432.06
2022-08-29T13:40:58.967Z,99435.44
2022-08-29T13:42:03.146Z,99433.34
2022-08-29T13:43:07.944Z,99434.63
2022-08-29T13:44:37.248Z,99430.84
2022-08-29T13:45:41.891Z,99430.00
2022-08-29T13:46:48.056Z,99419.53
2022-08-29T13:48:13.893Z,99426.22
2022-08-29T13:49:24.609Z,99440.06
2022-08-29T13:50:31.595Z,99435.47
2022-08-29T13:51:36.117Z,99433.75
2022-08-29T13:52:40.972Z,99408.41
2022-08-29T13:53:45.774Z,99429.56
2022-08-29T13:54:51.441Z,99434.59
2022-08-29T13:55:56.308Z,99427.88
2022-08-29T13:57:07.229Z,99444.19
2022-08-29T13:58:15.258Z,99432.03
2022-08-29T13:59:26.321Z,99431.44
2022-08-29T14:00:37.172Z,99423.47
2022-08-29T14:03:12.566Z,99436.44
2022-08-29T14:05:42.807Z,99424.69
2022-08-29T14:06:47.859Z,99407.28
2022-08-29T14:07:52.353Z,99427.44
2022-08-29T14:08:59.655Z,99412.53
2022-08-29T14:10:10.562Z,99424.09
2022-08-29T14:11:17.871Z,99424.31